sensor_id;sensor_type;location;lat;lon;timestamp;P1;durP1;ratioP1;P2;durP2;ratioP2
13163;SDS011;6647;53.688;10.746;2024-02-16T00:00:48;15.43;;;8.17;;
13163;SDS011;6647;53.688;10.746;2024-02-16T00:01:48;9.23;;;6.50;;
13163;SDS011;6647;53.688;10.746;2024-02-16T00:02:49;15.70;;;7.35;;
13163;SDS011;6647;53.688;10.746;2024-02-16T00:03:51;9.95;;;7.10;;
13163;SDS011;6647;53.688;10.746;2024-02-16T00:04:52;20.73;;;7.67;;
13163;SDS011;6647;53.688;10.746;2024-02-16T00:05:52;7.80;;;6.93;;
13163;SDS011;6647;53.688;10.746;2024-02-16T00:06:53;9.80;;;7.03;;
13163;SDS011;6647;53.688;10.746;2024-02-16T00:07:53;11.73;;;6.87;;
13163;SDS011;6647;53.688;10.746;2024-02-16T00:08:53;10.53;;;7.07;;
13163;SDS011;6647;53.688;10.746;2024-02-16T00:09:54;10.17;;;6.70;;
13163;SDS011;6647;53.688;10.746;2024-02-16T00:10:54;17.93;;;7.60;;
13163;SDS011;6647;53.688;10.746;2024-02-16T00:11:54;9.40;;;7.40;;
13163;SDS011;6647;53.688;10.746;2024-02-16T00:12:55;15.30;;;7.67;;
13163;SDS011;6647;53.688;10.746;2024-02-16T00:13:55;16.00;;;8.47;;
13163;SDS011;6647;53.688;10.746;2024-02-16T00:14:55;8.33;;;6.80;;
13163;SDS011;6647;53.688;10.746;2024-02-16T00:15:55;13.43;;;7.20;;
13163;SDS011;6647;53.688;10.746;2024-02-16T00:16:57;12.70;;;7.78;;
13163;SDS011;6647;53.688;10.746;2024-02-16T00:17:58;6.47;;;5.75;;
13163;SDS011;6647;53.688;10.746;2024-02-16T00:18:59;10.80;;;7.00;;
13163;SDS011;6647;53.688;10.746;2024-02-16T00:20:00;11.90;;;7.57;;
13163;SDS011;6647;53.688;10.746;2024-02-16T00:21:00;8.97;;;7.00;;
13163;SDS011;6647;53.688;10.746;2024-02-16T00:22:02;11.57;;;7.38;;
13163;SDS011;6647;53.688;10.746;2024-02-16T00:23:03;11.30;;;7.10;;
13163;SDS011;6647;53.688;10.746;2024-02-16T00:24:04;10.60;;;7.20;;
13163;SDS011;6647;53.688;10.746;2024-02-16T00:25:07;12.43;;;7.50;;
13163;SDS011;6647;53.688;10.746;2024-02-16T00:26:09;6.90;;;6.20;;
13163;SDS011;6647;53.688;10.746;2024-02-16T00:27:10;10.10;;;7.20;;
13163;SDS011;6647;53.688;10.746;2024-02-16T00:28:10;9.90;;;6.97;;
13163;SDS011;6647;53.688;10.746;2024-02-16T00:29:11;13.50;;;7.13;;
13163;SDS011;6647;53.688;10.746;2024-02-16T00:30:11;9.23;;;6.47;;
13163;SDS011;6647;53.688;10.746;2024-02-16T00:31:12;18.20;;;6.70;;
13163;SDS011;6647;53.688;10.746;2024-02-16T00:32:12;9.67;;;7.53;;
13163;SDS011;6647;53.688;10.746;2024-02-16T00:33:13;11.20;;;6.80;;
13163;SDS011;6647;53.688;10.746;2024-02-16T00:34:13;13.60;;;7.23;;
13163;SDS011;6647;53.688;10.746;2024-02-16T00:35:14;10.27;;;6.30;;
13163;SDS011;6647;53.688;10.746;2024-02-16T00:36:16;14.32;;;6.43;;
13163;SDS011;6647;53.688;10.746;2024-02-16T00:37:16;12.40;;;7.67;;
13163;SDS011;6647;53.688;10.746;2024-02-16T00:38:17;12.33;;;7.67;;
13163;SDS011;6647;53.688;10.746;2024-02-16T00:39:17;15.33;;;7.67;;
13163;SDS011;6647;53.688;10.746;2024-02-16T00:40:18;10.25;;;6.55;;
13163;SDS011;6647;53.688;10.746;2024-02-16T00:41:21;9.60;;;7.35;;
13163;SDS011;6647;53.688;10.746;2024-02-16T00:42:22;13.38;;;7.07;;
13163;SDS011;6647;53.688;10.746;2024-02-16T00:43:26;11.90;;;7.20;;
13163;SDS011;6647;53.688;10.746;2024-02-16T00:44:28;15.52;;;6.82;;
13163;SDS011;6647;53.688;10.746;2024-02-16T00:45:30;12.48;;;7.25;;
13163;SDS011;6647;53.688;10.746;2024-02-16T00:46:31;18.50;;;7.70;;
13163;SDS011;6647;53.688;10.746;2024-02-16T00:47:32;16.07;;;7.73;;
13163;SDS011;6647;53.688;10.746;2024-02-16T00:48:32;9.90;;;6.83;;
13163;SDS011;6647;53.688;10.746;2024-02-16T00:49:32;9.33;;;6.90;;
13163;SDS011;6647;53.688;10.746;2024-02-16T00:50:34;14.50;;;6.80;;
13163;SDS011;6647;53.688;10.746;2024-02-16T00:51:37;11.98;;;7.18;;
13163;SDS011;6647;53.688;10.746;2024-02-16T00:52:37;8.10;;;6.20;;
13163;SDS011;6647;53.688;10.746;2024-02-16T00:53:39;12.90;;;7.07;;
13163;SDS011;6647;53.688;10.746;2024-02-16T00:54:40;8.63;;;6.93;;
13163;SDS011;6647;53.688;10.746;2024-02-16T00:55:40;16.47;;;7.50;;
13163;SDS011;6647;53.688;10.746;2024-02-16T00:56:41;13.35;;;6.80;;
13163;SDS011;6647;53.688;10.746;2024-02-16T00:57:41;11.13;;;7.10;;
13163;SDS011;6647;53.688;10.746;2024-02-16T00:58:42;9.07;;;6.53;;
13163;SDS011;6647;53.688;10.746;2024-02-16T00:59:42;16.70;;;7.57;;
13163;SDS011;6647;53.688;10.746;2024-02-16T01:00:43;12.10;;;7.17;;
13163;SDS011;6647;53.688;10.746;2024-02-16T01:01:43;14.23;;;6.50;;
13163;SDS011;6647;53.688;10.746;2024-02-16T01:02:45;9.70;;;7.00;;
13163;SDS011;6647;53.688;10.746;2024-02-16T01:03:45;14.20;;;6.70;;
13163;SDS011;6647;53.688;10.746;2024-02-16T01:04:45;11.17;;;7.27;;
13163;SDS011;6647;53.688;10.746;2024-02-16T01:05:47;8.82;;;6.95;;
13163;SDS011;6647;53.688;10.746;2024-02-16T01:06:47;15.07;;;7.23;;
13163;SDS011;6647;53.688;10.746;2024-02-16T01:07:47;12.13;;;7.37;;
13163;SDS011;6647;53.688;10.746;2024-02-16T01:08:47;10.60;;;7.03;;
13163;SDS011;6647;53.688;10.746;2024-02-16T01:09:48;13.40;;;7.43;;
13163;SDS011;6647;53.688;10.746;2024-02-16T01:10:48;11.10;;;7.10;;
13163;SDS011;6647;53.688;10.746;2024-02-16T01:11:50;11.70;;;7.22;;
13163;SDS011;6647;53.688;10.746;2024-02-16T01:12:51;9.30;;;7.32;;
13163;SDS011;6647;53.688;10.746;2024-02-16T01:13:54;15.50;;;7.40;;
13163;SDS011;6647;53.688;10.746;2024-02-16T01:14:55;13.57;;;7.43;;
13163;SDS011;6647;53.688;10.746;2024-02-16T01:15:56;16.08;;;7.10;;
13163;SDS011;6647;53.688;10.746;2024-02-16T01:16:57;12.23;;;6.60;;
13163;SDS011;6647;53.688;10.746;2024-02-16T01:17:58;10.45;;;6.68;;
13163;SDS011;6647;53.688;10.746;2024-02-16T01:19:01;10.57;;;7.50;;
13163;SDS011;6647;53.688;10.746;2024-02-16T01:20:04;16.30;;;6.90;;
13163;SDS011;6647;53.688;10.746;2024-02-16T01:21:05;12.60;;;6.93;;
13163;SDS011;6647;53.688;10.746;2024-02-16T01:22:06;8.80;;;6.70;;
13163;SDS011;6647;53.688;10.746;2024-02-16T01:23:07;13.60;;;7.17;;
13163;SDS011;6647;53.688;10.746;2024-02-16T01:24:07;10.57;;;7.23;;
13163;SDS011;6647;53.688;10.746;2024-02-16T01:25:08;12.93;;;7.95;;
13163;SDS011;6647;53.688;10.746;2024-02-16T01:26:09;17.37;;;7.40;;
13163;SDS011;6647;53.688;10.746;2024-02-16T01:27:10;10.73;;;7.28;;
13163;SDS011;6647;53.688;10.746;2024-02-16T01:28:11;11.93;;;7.07;;
13163;SDS011;6647;53.688;10.746;2024-02-16T01:29:12;11.45;;;7.35;;
13163;SDS011;6647;53.688;10.746;2024-02-16T01:30:12;13.20;;;7.23;;
13163;SDS011;6647;53.688;10.746;2024-02-16T01:31:14;12.95;;;7.28;;
13163;SDS011;6647;53.688;10.746;2024-02-16T01:32:14;17.33;;;7.20;;
13163;SDS011;6647;53.688;10.746;2024-02-16T01:33:15;9.97;;;6.13;;
13163;SDS011;6647;53.688;10.746;2024-02-16T01:34:15;8.30;;;6.40;;
13163;SDS011;6647;53.688;10.746;2024-02-16T01:35:15;8.90;;;7.20;;
13163;SDS011;6647;53.688;10.746;2024-02-16T01:36:16;11.37;;;6.67;;
13163;SDS011;6647;53.688;10.746;2024-02-16T01:37:16;12.17;;;7.30;;
13163;SDS011;6647;53.688;10.746;2024-02-16T01:38:17;12.77;;;6.60;;
13163;SDS011;6647;53.688;10.746;2024-02-16T01:39:17;7.67;;;6.83;;
13163;SDS011;6647;53.688;10.746;2024-02-16T01:40:19;10.85;;;6.80;;
13163;SDS011;6647;53.688;10.746;2024-02-16T01:41:21;12.70;;;6.65;;
13163;SDS011;6647;53.688;10.746;2024-02-16T01:42:22;9.38;;;6.90;;
13163;SDS011;6647;53.688;10.746;2024-02-16T01:43:24;8.80;;;6.38;;
13163;SDS011;6647;53.688;10.746;2024-02-16T01:44:26;9.65;;;6.57;;
13163;SDS011;6647;53.688;10.746;2024-02-16T01:45:28;15.65;;;6.28;;
13163;SDS011;6647;53.688;10.746;2024-02-16T01:46:28;11.53;;;6.57;;
13163;SDS011;6647;53.688;10.746;2024-02-16T01:47:29;15.50;;;6.57;;
13163;SDS011;6647;53.688;10.746;2024-02-16T01:48:30;9.20;;;6.07;;
13163;SDS011;6647;53.688;10.746;2024-02-16T01:49:32;12.85;;;6.22;;
13163;SDS011;6647;53.688;10.746;2024-02-16T01:50:33;11.50;;;6.57;;
13163;SDS011;6647;53.688;10.746;2024-02-16T01:51:34;11.90;;;6.13;;
13163;SDS011;6647;53.688;10.746;2024-02-16T01:52:35;15.37;;;7.30;;
13163;SDS011;6647;53.688;10.746;2024-02-16T01:53:38;13.32;;;6.50;;
13163;SDS011;6647;53.688;10.746;2024-02-16T01:54:40;9.30;;;6.13;;
13163;SDS011;6647;53.688;10.746;2024-02-16T01:55:40;10.87;;;6.17;;
13163;SDS011;6647;53.688;10.746;2024-02-16T01:56:40;8.27;;;6.00;;
13163;SDS011;6647;53.688;10.746;2024-02-16T01:57:44;10.60;;;6.80;;
13163;SDS011;6647;53.688;10.746;2024-02-16T01:58:46;8.02;;;5.68;;
13163;SDS011;6647;53.688;10.746;2024-02-16T01:59:46;12.40;;;6.77;;
13163;SDS011;6647;53.688;10.746;2024-02-16T02:00:47;10.20;;;6.70;;
13163;SDS011;6647;53.688;10.746;2024-02-16T02:01:47;9.03;;;6.70;;
13163;SDS011;6647;53.688;10.746;2024-02-16T02:02:47;10.60;;;6.33;;
13163;SDS011;6647;53.688;10.746;2024-02-16T02:03:48;9.83;;;5.60;;
13163;SDS011;6647;53.688;10.746;2024-02-16T02:04:48;7.97;;;6.00;;
13163;SDS011;6647;53.688;10.746;2024-02-16T02:05:49;9.83;;;5.73;;
13163;SDS011;6647;53.688;10.746;2024-02-16T02:06:51;10.85;;;6.25;;
13163;SDS011;6647;53.688;10.746;2024-02-16T02:07:53;10.23;;;6.95;;
13163;SDS011;6647;53.688;10.746;2024-02-16T02:08:55;9.95;;;6.00;;
13163;SDS011;6647;53.688;10.746;2024-02-16T02:09:57;11.23;;;6.43;;
13163;SDS011;6647;53.688;10.746;2024-02-16T02:10:59;9.68;;;6.30;;
13163;SDS011;6647;53.688;10.746;2024-02-16T02:12:00;12.50;;;6.78;;
13163;SDS011;6647;53.688;10.746;2024-02-16T02:13:01;13.13;;;6.53;;
13163;SDS011;6647;53.688;10.746;2024-02-16T02:14:03;12.63;;;6.70;;
13163;SDS011;6647;53.688;10.746;2024-02-16T02:15:05;9.82;;;6.20;;
13163;SDS011;6647;53.688;10.746;2024-02-16T02:16:07;20.45;;;6.68;;
13163;SDS011;6647;53.688;10.746;2024-02-16T02:17:10;8.23;;;6.20;;
13163;SDS011;6647;53.688;10.746;2024-02-16T02:18:10;10.63;;;6.90;;
13163;SDS011;6647;53.688;10.746;2024-02-16T02:19:11;9.20;;;6.33;;
13163;SDS011;6647;53.688;10.746;2024-02-16T02:20:11;7.90;;;5.63;;
13163;SDS011;6647;53.688;10.746;2024-02-16T02:21:11;11.03;;;6.63;;
13163;SDS011;6647;53.688;10.746;2024-02-16T02:22:17;11.52;;;5.95;;
13163;SDS011;6647;53.688;10.746;2024-02-16T02:23:17;9.93;;;6.38;;
13163;SDS011;6647;53.688;10.746;2024-02-16T02:24:17;11.07;;;6.70;;
13163;SDS011;6647;53.688;10.746;2024-02-16T02:25:18;7.90;;;6.73;;
13163;SDS011;6647;53.688;10.746;2024-02-16T02:26:18;9.10;;;5.63;;
13163;SDS011;6647;53.688;10.746;2024-02-16T02:27:18;9.93;;;6.70;;
13163;SDS011;6647;53.688;10.746;2024-02-16T02:28:20;10.23;;;6.55;;
13163;SDS011;6647;53.688;10.746;2024-02-16T02:29:25;11.63;;;6.55;;
13163;SDS011;6647;53.688;10.746;2024-02-16T02:30:27;12.70;;;6.63;;
13163;SDS011;6647;53.688;10.746;2024-02-16T02:31:28;12.20;;;7.03;;
13163;SDS011;6647;53.688;10.746;2024-02-16T02:32:30;11.93;;;6.65;;
13163;SDS011;6647;53.688;10.746;2024-02-16T02:33:31;8.70;;;6.50;;
13163;SDS011;6647;53.688;10.746;2024-02-16T02:34:33;15.73;;;6.15;;
13163;SDS011;6647;53.688;10.746;2024-02-16T02:35:35;7.55;;;6.53;;
13163;SDS011;6647;53.688;10.746;2024-02-16T02:36:35;11.37;;;6.33;;
13163;SDS011;6647;53.688;10.746;2024-02-16T02:37:37;9.27;;;7.38;;
13163;SDS011;6647;53.688;10.746;2024-02-16T02:38:40;9.32;;;6.55;;
13163;SDS011;6647;53.688;10.746;2024-02-16T02:39:40;11.00;;;7.40;;
13163;SDS011;6647;53.688;10.746;2024-02-16T02:40:41;8.83;;;6.90;;
13163;SDS011;6647;53.688;10.746;2024-02-16T02:41:41;18.17;;;7.50;;
13163;SDS011;6647;53.688;10.746;2024-02-16T02:42:41;8.60;;;6.33;;
13163;SDS011;6647;53.688;10.746;2024-02-16T02:43:41;9.57;;;7.27;;
13163;SDS011;6647;53.688;10.746;2024-02-16T02:44:42;12.23;;;7.07;;
13163;SDS011;6647;53.688;10.746;2024-02-16T02:45:50;11.98;;;7.07;;
13163;SDS011;6647;53.688;10.746;2024-02-16T02:46:52;12.18;;;7.88;;
13163;SDS011;6647;53.688;10.746;2024-02-16T02:47:53;9.25;;;6.80;;
13163;SDS011;6647;53.688;10.746;2024-02-16T02:48:54;19.60;;;7.15;;
13163;SDS011;6647;53.688;10.746;2024-02-16T02:49:56;10.38;;;6.80;;
13163;SDS011;6647;53.688;10.746;2024-02-16T02:50:58;15.27;;;6.78;;
13163;SDS011;6647;53.688;10.746;2024-02-16T02:52:00;16.23;;;7.30;;
13163;SDS011;6647;53.688;10.746;2024-02-16T02:53:02;15.07;;;7.40;;
13163;SDS011;6647;53.688;10.746;2024-02-16T02:54:04;12.48;;;7.43;;
13163;SDS011;6647;53.688;10.746;2024-02-16T02:55:06;12.85;;;6.63;;
13163;SDS011;6647;53.688;10.746;2024-02-16T02:56:07;11.75;;;6.65;;
13163;SDS011;6647;53.688;10.746;2024-02-16T02:57:08;11.57;;;7.53;;
13163;SDS011;6647;53.688;10.746;2024-02-16T02:58:10;12.45;;;7.15;;
13163;SDS011;6647;53.688;10.746;2024-02-16T02:59:10;15.53;;;6.93;;
13163;SDS011;6647;53.688;10.746;2024-02-16T03:00:10;12.77;;;7.90;;
13163;SDS011;6647;53.688;10.746;2024-02-16T03:01:11;10.60;;;7.30;;
13163;SDS011;6647;53.688;10.746;2024-02-16T03:02:12;12.00;;;6.53;;
13163;SDS011;6647;53.688;10.746;2024-02-16T03:03:13;9.97;;;6.67;;
13163;SDS011;6647;53.688;10.746;2024-02-16T03:04:13;12.13;;;8.30;;
13163;SDS011;6647;53.688;10.746;2024-02-16T03:05:14;18.30;;;7.53;;
13163;SDS011;6647;53.688;10.746;2024-02-16T03:06:17;13.73;;;7.80;;
13163;SDS011;6647;53.688;10.746;2024-02-16T03:07:18;13.23;;;7.45;;
13163;SDS011;6647;53.688;10.746;2024-02-16T03:08:18;9.33;;;7.83;;
13163;SDS011;6647;53.688;10.746;2024-02-16T03:09:21;10.82;;;7.40;;
13163;SDS011;6647;53.688;10.746;2024-02-16T03:10:23;11.40;;;7.25;;
13163;SDS011;6647;53.688;10.746;2024-02-16T03:11:24;21.43;;;8.23;;
13163;SDS011;6647;53.688;10.746;2024-02-16T03:12:24;15.37;;;7.43;;
13163;SDS011;6647;53.688;10.746;2024-02-16T03:13:26;12.73;;;7.93;;
13163;SDS011;6647;53.688;10.746;2024-02-16T03:14:28;12.50;;;7.55;;
13163;SDS011;6647;53.688;10.746;2024-02-16T03:15:30;13.90;;;8.05;;
13163;SDS011;6647;53.688;10.746;2024-02-16T03:16:30;8.50;;;7.60;;
13163;SDS011;6647;53.688;10.746;2024-02-16T03:17:33;11.38;;;7.72;;
13163;SDS011;6647;53.688;10.746;2024-02-16T03:18:34;12.68;;;7.60;;
13163;SDS011;6647;53.688;10.746;2024-02-16T03:19:36;15.13;;;8.25;;
13163;SDS011;6647;53.688;10.746;2024-02-16T03:20:36;13.50;;;7.60;;
13163;SDS011;6647;53.688;10.746;2024-02-16T03:21:36;16.83;;;7.70;;
13163;SDS011;6647;53.688;10.746;2024-02-16T03:22:38;11.35;;;7.93;;
13163;SDS011;6647;53.688;10.746;2024-02-16T03:23:39;14.77;;;8.02;;
13163;SDS011;6647;53.688;10.746;2024-02-16T03:24:40;13.30;;;8.33;;
13163;SDS011;6647;53.688;10.746;2024-02-16T03:25:40;13.00;;;7.90;;
13163;SDS011;6647;53.688;10.746;2024-02-16T03:26:40;11.50;;;7.90;;
13163;SDS011;6647;53.688;10.746;2024-02-16T03:27:42;13.07;;;7.60;;
13163;SDS011;6647;53.688;10.746;2024-02-16T03:28:48;12.57;;;7.00;;
13163;SDS011;6647;53.688;10.746;2024-02-16T03:29:49;15.95;;;7.38;;
13163;SDS011;6647;53.688;10.746;2024-02-16T03:30:49;13.43;;;7.00;;
13163;SDS011;6647;53.688;10.746;2024-02-16T03:31:50;12.17;;;7.83;;
13163;SDS011;6647;53.688;10.746;2024-02-16T03:32:50;10.93;;;7.20;;
13163;SDS011;6647;53.688;10.746;2024-02-16T03:33:51;9.40;;;7.87;;
13163;SDS011;6647;53.688;10.746;2024-02-16T03:34:53;9.32;;;7.50;;
13163;SDS011;6647;53.688;10.746;2024-02-16T03:35:54;15.95;;;8.75;;
13163;SDS011;6647;53.688;10.746;2024-02-16T03:36:55;12.50;;;7.47;;
13163;SDS011;6647;53.688;10.746;2024-02-16T03:37:56;10.68;;;7.43;;
13163;SDS011;6647;53.688;10.746;2024-02-16T03:38:57;14.73;;;7.50;;
13163;SDS011;6647;53.688;10.746;2024-02-16T03:39:57;10.57;;;7.73;;
13163;SDS011;6647;53.688;10.746;2024-02-16T03:40:59;9.52;;;7.20;;
13163;SDS011;6647;53.688;10.746;2024-02-16T03:42:00;8.13;;;7.15;;
13163;SDS011;6647;53.688;10.746;2024-02-16T03:43:01;9.97;;;7.00;;
13163;SDS011;6647;53.688;10.746;2024-02-16T03:44:03;7.72;;;6.93;;
13163;SDS011;6647;53.688;10.746;2024-02-16T03:45:05;13.73;;;8.30;;
13163;SDS011;6647;53.688;10.746;2024-02-16T03:46:07;13.02;;;7.47;;
13163;SDS011;6647;53.688;10.746;2024-02-16T03:47:09;9.30;;;7.18;;
13163;SDS011;6647;53.688;10.746;2024-02-16T03:48:10;17.70;;;7.95;;
13163;SDS011;6647;53.688;10.746;2024-02-16T03:49:10;9.43;;;7.60;;
13163;SDS011;6647;53.688;10.746;2024-02-16T03:50:11;10.53;;;7.50;;
13163;SDS011;6647;53.688;10.746;2024-02-16T03:51:11;13.23;;;7.57;;
13163;SDS011;6647;53.688;10.746;2024-02-16T03:52:11;10.43;;;7.70;;
13163;SDS011;6647;53.688;10.746;2024-02-16T03:53:13;7.93;;;7.22;;
13163;SDS011;6647;53.688;10.746;2024-02-16T03:54:13;19.20;;;6.87;;
13163;SDS011;6647;53.688;10.746;2024-02-16T03:55:14;18.03;;;7.10;;
13163;SDS011;6647;53.688;10.746;2024-02-16T03:56:19;10.23;;;7.67;;
13163;SDS011;6647;53.688;10.746;2024-02-16T03:57:22;11.48;;;6.90;;
13163;SDS011;6647;53.688;10.746;2024-02-16T03:58:24;8.20;;;7.40;;
13163;SDS011;6647;53.688;10.746;2024-02-16T03:59:25;11.93;;;7.22;;
13163;SDS011;6647;53.688;10.746;2024-02-16T04:00:26;11.03;;;7.13;;
13163;SDS011;6647;53.688;10.746;2024-02-16T04:01:26;15.77;;;8.53;;
13163;SDS011;6647;53.688;10.746;2024-02-16T04:02:28;19.77;;;7.25;;
13163;SDS011;6647;53.688;10.746;2024-02-16T04:03:28;9.27;;;6.90;;
13163;SDS011;6647;53.688;10.746;2024-02-16T04:04:28;10.37;;;7.50;;
13163;SDS011;6647;53.688;10.746;2024-02-16T04:05:28;12.23;;;7.33;;
13163;SDS011;6647;53.688;10.746;2024-02-16T04:06:33;8.20;;;7.10;;
13163;SDS011;6647;53.688;10.746;2024-02-16T04:07:34;10.47;;;6.57;;
13163;SDS011;6647;53.688;10.746;2024-02-16T04:08:35;10.40;;;7.20;;
13163;SDS011;6647;53.688;10.746;2024-02-16T04:09:35;13.43;;;7.10;;
13163;SDS011;6647;53.688;10.746;2024-02-16T04:10:35;12.10;;;7.70;;
13163;SDS011;6647;53.688;10.746;2024-02-16T04:11:36;15.97;;;8.23;;
13163;SDS011;6647;53.688;10.746;2024-02-16T04:12:36;13.30;;;7.77;;
13163;SDS011;6647;53.688;10.746;2024-02-16T04:13:38;9.73;;;7.10;;
13163;SDS011;6647;53.688;10.746;2024-02-16T04:14:39;14.20;;;7.40;;
13163;SDS011;6647;53.688;10.746;2024-02-16T04:15:41;10.80;;;7.35;;
13163;SDS011;6647;53.688;10.746;2024-02-16T04:16:42;9.33;;;6.60;;
13163;SDS011;6647;53.688;10.746;2024-02-16T04:17:43;15.95;;;7.35;;
13163;SDS011;6647;53.688;10.746;2024-02-16T04:18:44;8.57;;;6.90;;
13163;SDS011;6647;53.688;10.746;2024-02-16T04:19:44;8.97;;;7.37;;
13163;SDS011;6647;53.688;10.746;2024-02-16T04:20:44;12.27;;;7.33;;
13163;SDS011;6647;53.688;10.746;2024-02-16T04:21:44;10.13;;;6.60;;
13163;SDS011;6647;53.688;10.746;2024-02-16T04:22:45;10.00;;;7.17;;
13163;SDS011;6647;53.688;10.746;2024-02-16T04:23:45;13.70;;;7.53;;
13163;SDS011;6647;53.688;10.746;2024-02-16T04:24:46;10.67;;;6.57;;
13163;SDS011;6647;53.688;10.746;2024-02-16T04:25:46;13.03;;;7.33;;
13163;SDS011;6647;53.688;10.746;2024-02-16T04:26:46;11.53;;;6.70;;
13163;SDS011;6647;53.688;10.746;2024-02-16T04:27:47;10.85;;;6.95;;
13163;SDS011;6647;53.688;10.746;2024-02-16T04:28:48;10.73;;;6.30;;
13163;SDS011;6647;53.688;10.746;2024-02-16T04:29:49;12.90;;;7.67;;
13163;SDS011;6647;53.688;10.746;2024-02-16T04:30:50;8.80;;;6.30;;
13163;SDS011;6647;53.688;10.746;2024-02-16T04:31:51;7.13;;;6.43;;
13163;SDS011;6647;53.688;10.746;2024-02-16T04:32:53;7.80;;;6.95;;
13163;SDS011;6647;53.688;10.746;2024-02-16T04:33:55;13.55;;;6.45;;
13163;SDS011;6647;53.688;10.746;2024-02-16T04:34:57;13.13;;;6.25;;
13163;SDS011;6647;53.688;10.746;2024-02-16T04:35:58;10.30;;;6.07;;
13163;SDS011;6647;53.688;10.746;2024-02-16T04:36:59;7.17;;;6.40;;
13163;SDS011;6647;53.688;10.746;2024-02-16T04:37:59;9.00;;;6.83;;
13163;SDS011;6647;53.688;10.746;2024-02-16T04:39:01;10.88;;;6.57;;
13163;SDS011;6647;53.688;10.746;2024-02-16T04:40:04;8.15;;;6.13;;
13163;SDS011;6647;53.688;10.746;2024-02-16T04:41:05;8.52;;;6.55;;
13163;SDS011;6647;53.688;10.746;2024-02-16T04:42:07;8.43;;;6.20;;
13163;SDS011;6647;53.688;10.746;2024-02-16T04:43:08;10.13;;;6.00;;
13163;SDS011;6647;53.688;10.746;2024-02-16T04:44:09;7.60;;;6.80;;
13163;SDS011;6647;53.688;10.746;2024-02-16T04:45:12;8.27;;;6.13;;
13163;SDS011;6647;53.688;10.746;2024-02-16T04:46:13;7.32;;;6.15;;
13163;SDS011;6647;53.688;10.746;2024-02-16T04:47:17;11.82;;;6.38;;
13163;SDS011;6647;53.688;10.746;2024-02-16T04:48:17;9.73;;;6.60;;
13163;SDS011;6647;53.688;10.746;2024-02-16T04:49:17;6.90;;;6.20;;
13163;SDS011;6647;53.688;10.746;2024-02-16T04:50:18;10.37;;;6.50;;
13163;SDS011;6647;53.688;10.746;2024-02-16T04:51:18;8.70;;;6.87;;
13163;SDS011;6647;53.688;10.746;2024-02-16T04:52:18;15.57;;;6.57;;
13163;SDS011;6647;53.688;10.746;2024-02-16T04:53:18;10.53;;;7.20;;
13163;SDS011;6647;53.688;10.746;2024-02-16T04:54:20;8.55;;;6.53;;
13163;SDS011;6647;53.688;10.746;2024-02-16T04:55:22;7.63;;;6.03;;
13163;SDS011;6647;53.688;10.746;2024-02-16T04:56:23;7.90;;;6.32;;
13163;SDS011;6647;53.688;10.746;2024-02-16T04:57:25;9.93;;;6.55;;
13163;SDS011;6647;53.688;10.746;2024-02-16T04:58:27;7.43;;;5.75;;
13163;SDS011;6647;53.688;10.746;2024-02-16T04:59:28;7.63;;;6.00;;
13163;SDS011;6647;53.688;10.746;2024-02-16T05:00:29;11.15;;;6.03;;
13163;SDS011;6647;53.688;10.746;2024-02-16T05:01:31;7.35;;;6.60;;
13163;SDS011;6647;53.688;10.746;2024-02-16T05:02:32;12.88;;;6.57;;
13163;SDS011;6647;53.688;10.746;2024-02-16T05:03:34;9.15;;;6.13;;
13163;SDS011;6647;53.688;10.746;2024-02-16T05:04:34;6.67;;;5.93;;
13163;SDS011;6647;53.688;10.746;2024-02-16T05:05:36;11.52;;;6.82;;
13163;SDS011;6647;53.688;10.746;2024-02-16T05:06:40;11.90;;;5.53;;
13163;SDS011;6647;53.688;10.746;2024-02-16T05:07:42;7.68;;;6.15;;
13163;SDS011;6647;53.688;10.746;2024-02-16T05:08:42;6.53;;;5.18;;
13163;SDS011;6647;53.688;10.746;2024-02-16T05:09:42;13.77;;;6.23;;
13163;SDS011;6647;53.688;10.746;2024-02-16T05:10:44;8.18;;;6.07;;
13163;SDS011;6647;53.688;10.746;2024-02-16T05:11:44;14.27;;;6.73;;
13163;SDS011;6647;53.688;10.746;2024-02-16T05:12:45;12.00;;;5.90;;
13163;SDS011;6647;53.688;10.746;2024-02-16T05:13:45;10.80;;;6.57;;
13163;SDS011;6647;53.688;10.746;2024-02-16T05:14:49;10.43;;;6.47;;
13163;SDS011;6647;53.688;10.746;2024-02-16T05:15:51;9.77;;;6.45;;
13163;SDS011;6647;53.688;10.746;2024-02-16T05:16:55;7.20;;;6.10;;
13163;SDS011;6647;53.688;10.746;2024-02-16T05:17:55;7.73;;;6.30;;
13163;SDS011;6647;53.688;10.746;2024-02-16T05:18:56;9.90;;;6.37;;
13163;SDS011;6647;53.688;10.746;2024-02-16T05:19:58;9.45;;;6.07;;
13163;SDS011;6647;53.688;10.746;2024-02-16T05:20:59;14.32;;;5.68;;
13163;SDS011;6647;53.688;10.746;2024-02-16T05:22:00;7.87;;;5.90;;
13163;SDS011;6647;53.688;10.746;2024-02-16T05:23:00;8.47;;;6.00;;
13163;SDS011;6647;53.688;10.746;2024-02-16T05:24:01;8.73;;;6.07;;
13163;SDS011;6647;53.688;10.746;2024-02-16T05:25:02;11.73;;;6.47;;
13163;SDS011;6647;53.688;10.746;2024-02-16T05:26:03;13.10;;;6.33;;
13163;SDS011;6647;53.688;10.746;2024-02-16T05:27:04;7.17;;;5.70;;
13163;SDS011;6647;53.688;10.746;2024-02-16T05:28:04;9.73;;;5.97;;
13163;SDS011;6647;53.688;10.746;2024-02-16T05:29:05;10.50;;;5.70;;
13163;SDS011;6647;53.688;10.746;2024-02-16T05:30:10;11.55;;;6.10;;
13163;SDS011;6647;53.688;10.746;2024-02-16T05:31:13;10.85;;;6.15;;
13163;SDS011;6647;53.688;10.746;2024-02-16T05:32:19;8.52;;;6.10;;
13163;SDS011;6647;53.688;10.746;2024-02-16T05:33:19;8.40;;;5.70;;
13163;SDS011;6647;53.688;10.746;2024-02-16T05:34:21;8.23;;;5.60;;
13163;SDS011;6647;53.688;10.746;2024-02-16T05:35:23;8.13;;;6.13;;
13163;SDS011;6647;53.688;10.746;2024-02-16T05:36:27;8.00;;;6.15;;
13163;SDS011;6647;53.688;10.746;2024-02-16T05:37:31;8.27;;;5.97;;
13163;SDS011;6647;53.688;10.746;2024-02-16T05:38:32;6.83;;;5.83;;
13163;SDS011;6647;53.688;10.746;2024-02-16T05:39:38;9.02;;;5.50;;
13163;SDS011;6647;53.688;10.746;2024-02-16T05:40:55;7.95;;;5.60;;
13163;SDS011;6647;53.688;10.746;2024-02-16T05:41:57;7.38;;;5.72;;
13163;SDS011;6647;53.688;10.746;2024-02-16T05:42:59;11.82;;;5.30;;
13163;SDS011;6647;53.688;10.746;2024-02-16T05:44:01;11.85;;;6.20;;
13163;SDS011;6647;53.688;10.746;2024-02-16T05:45:03;15.02;;;6.43;;
13163;SDS011;6647;53.688;10.746;2024-02-16T05:46:04;6.13;;;5.60;;
13163;SDS011;6647;53.688;10.746;2024-02-16T05:47:06;7.50;;;5.65;;
13163;SDS011;6647;53.688;10.746;2024-02-16T05:48:08;10.07;;;5.18;;
13163;SDS011;6647;53.688;10.746;2024-02-16T05:49:10;7.55;;;6.00;;
13163;SDS011;6647;53.688;10.746;2024-02-16T05:50:11;8.60;;;5.60;;
13163;SDS011;6647;53.688;10.746;2024-02-16T05:51:12;8.48;;;6.07;;
13163;SDS011;6647;53.688;10.746;2024-02-16T05:52:13;13.88;;;5.75;;
13163;SDS011;6647;53.688;10.746;2024-02-16T05:53:20;10.52;;;5.50;;
13163;SDS011;6647;53.688;10.746;2024-02-16T05:54:21;8.53;;;5.80;;
13163;SDS011;6647;53.688;10.746;2024-02-16T05:55:22;7.65;;;5.40;;
13163;SDS011;6647;53.688;10.746;2024-02-16T05:56:25;11.98;;;5.82;;
13163;SDS011;6647;53.688;10.746;2024-02-16T05:57:28;9.02;;;5.95;;
13163;SDS011;6647;53.688;10.746;2024-02-16T05:58:28;7.70;;;6.10;;
13163;SDS011;6647;53.688;10.746;2024-02-16T05:59:29;15.27;;;6.43;;
13163;SDS011;6647;53.688;10.746;2024-02-16T06:00:32;6.53;;;5.90;;
13163;SDS011;6647;53.688;10.746;2024-02-16T06:01:35;12.90;;;6.15;;
13163;SDS011;6647;53.688;10.746;2024-02-16T06:02:38;6.53;;;5.38;;
13163;SDS011;6647;53.688;10.746;2024-02-16T06:03:41;7.13;;;5.25;;
13163;SDS011;6647;53.688;10.746;2024-02-16T06:04:42;12.18;;;6.05;;
13163;SDS011;6647;53.688;10.746;2024-02-16T06:05:43;9.53;;;5.87;;